Latest Weather Observations for Maroochydore

IDQ60801

Issued at 9:02 pm EST Tuesday 30 August 2016 (issued every 30 minutes, with the page automatically refreshed every 10 minutes)

About weather observations | Map of weather stations | Latest weather observations for QLD | Other Formats
Station Details ID: 040861 Name: SUNSHINE COAST AIRPORT Lat: -26.60 Lon: 153.09 Height: 3.3 m
Data from the previous 72 hours. | See also: Recent months at Maroochydore
Date/Time
EST
Temp
°C
App
Temp
°C
Dew
Point
°C
Rel
Hum
%
Delta-T
°C
Wind Press
QNH
hPa
Press
MSL
hPa
Rain since
9am
mm
Dir  Spd
km/h
Gust
km/h
Spd
kts
Gust
kts
30/08:30pm 18.6 17.3 12.6 68 3.3 E 11 17 6 9 1027.0 - 0.0
30/08:00pm 19.0 16.6 12.5 66 3.6 E 17 20 9 11 1026.8 - 0.0
30/07:30pm 19.2 17.1 12.5 65 3.7 E 15 20 8 11 1026.7 - 0.0
30/07:00pm 19.0 17.3 12.5 66 3.6 E 13 17 7 9 1026.4 - 0.0
30/06:30pm 18.8 17.4 12.3 66 3.6 E 11 15 6 8 1026.2 - 0.0
30/06:00pm 18.4 16.8 11.5 64 3.8 E 11 15 6 8 1026.0 1026.0 0.0
30/05:30pm 19.0 17.0 11.6 62 4.1 E 13 17 7 9 1025.8 - 0.0
30/05:00pm 19.8 17.8 11.6 59 4.5 ENE 13 17 7 9 1025.8 - 0.0
30/04:30pm 20.5 18.3 10.9 54 5.3 ENE 13 19 7 10 1025.6 - 0.0
30/04:00pm 21.1 18.8 11.7 55 5.2 E 15 20 8 11 1025.5 - 0.0
30/03:30pm 21.2 18.4 11.2 53 5.5 ENE 17 20 9 11 1025.5 - 0.0
30/03:00pm 21.5 18.6 10.9 51 5.8 E 17 22 9 12 1025.7 1025.7 0.0
30/02:30pm 21.7 18.4 11.7 53 5.6 E 20 24 11 13 1026.0 - 0.0
30/02:00pm 21.8 19.0 11.2 51 5.9 E 17 22 9 12 1026.4 - 0.0
30/01:30pm 22.3 19.5 11.4 50 6.1 E 17 22 9 12 1026.6 - 0.0
30/01:00pm 22.5 19.8 11.6 50 6.1 E 17 20 9 11 1026.9 - 0.0
30/12:30pm 22.5 19.8 11.6 50 6.1 E 17 22 9 12 1027.2 - 0.0
30/12:00pm 22.1 19.3 12.6 55 5.4 E 19 26 10 14 1027.4 1027.4 0.0
30/11:30am 21.7 19.1 13.1 58 4.9 E 19 24 10 13 1027.7 - 0.0
30/11:00am 22.1 20.4 13.5 58 5.0 E 15 22 8 12 1028.1 - 0.0
30/10:30am 21.7 20.0 12.3 55 5.3 E 13 17 7 9 1028.6 - 0.0
30/10:00am 21.9 19.5 12.7 56 5.2 E 17 20 9 11 1028.6 - 0.0
30/09:30am 22.0 19.6 12.5 54 5.4 E 17 20 9 11 1028.5 - 0.0
30/09:00am 21.2 19.2 12.6 58 4.8 ESE 15 22 8 12 1028.4 1028.4 0.0
30/08:30am 20.3 19.5 13.0 63 4.1 SE 9 15 5 8 1028.2 - 0.0
30/08:00am 17.2 16.5 13.3 78 2.2 SSW 9 11 5 6 1027.8 - 0.0
30/07:30am 15.0 14.8 13.7 92 0.7 WSW 7 11 4 6 1027.6 - 0.0
30/07:00am 13.3 13.5 13.0 98 0.2 SW 4 7 2 4 1027.0 - 0.0
30/06:30am 11.5 10.6 11.2 98 0.2 WSW 7 9 4 5 1026.8 - 0.0
30/06:00am 10.8 9.6 10.3 97 0.3 W 7 9 4 5 1026.2 1026.2 0.0
30/05:30am 11.1 10.2 10.6 97 0.3 WSW 6 7 3 4 1025.8 - 0.0
30/05:00am 11.1 10.2 10.6 97 0.3 W 6 7 3 4 1025.4 - 0.0
30/04:30am 11.0 10.1 10.5 97 0.3 WSW 6 7 3 4 1024.9 - 0.0
30/04:00am 10.5 10.6 10.0 97 0.3 CALM 0 0 0 0 1024.9 - 0.0
30/03:30am 10.4 10.4 9.9 97 0.3 CALM 0 0 0 0 1024.6 - 0.0
30/03:00am 10.9 10.3 10.4 97 0.3 WSW 4 9 2 5 1024.6 1024.6 0.0
30/02:30am 11.2 10.3 10.7 97 0.3 WSW 6 7 3 4 1024.8 - 0.0
30/02:00am 10.5 9.4 9.9 96 0.3 WSW 6 7 3 4 1025.0 - 0.0
30/01:40am 10.0 8.8 9.4 96 0.3 SW 6 7 3 4 1025.2 - 0.0
30/01:30am 10.6 9.5 10.0 96 0.3 SW 6 9 3 5 1025.3 - 0.0
30/01:02am 10.0 9.8 9.2 95 0.4 CALM 0 0 0 0 1025.3 - 0.0
30/01:00am 10.6 10.6 9.8 95 0.4 CALM 0 0 0 0 1025.4 - 0.0
30/12:50am 10.9 11.0 10.1 95 0.4 CALM 0 0 0 0 1025.5 - 0.0
30/12:30am 11.0 10.3 10.1 94 0.5 SW 4 7 2 4 1025.7 - 0.0
30/12:18am 10.9 9.8 9.8 93 0.6 SW 6 7 3 4 1025.7 - 0.0
30/12:00am 11.8 11.0 10.9 94 0.5 SW 6 9 3 5 1025.9 1025.9 0.0
 
Date/Time
EST
Temp
°C
App
Temp
°C
Dew
Point
°C
Rel
Hum
%
Delta-T
°C
Wind Press
QNH
hPa
Press
MSL
hPa
Rain since
9am
mm
Dir  Spd
km/h
Gust
km/h
Spd
kts
Gust
kts
29/11:30pm 12.5 11.8 11.4 93 0.6 SW 6 7 3 4 1026.0 - 0.0
29/11:00pm 13.2 12.1 11.9 92 0.7 WSW 9 11 5 6 1026.4 - 0.0
29/10:30pm 14.4 13.3 10.8 79 1.9 WSW 7 9 4 5 1026.2 - 0.0
29/10:00pm 18.1 15.7 11.4 65 3.7 ENE 15 17 8 9 1026.2 - 0.0
29/09:30pm 18.3 16.0 11.6 65 3.7 ENE 15 17 8 9 1026.4 - 0.0
29/09:00pm 18.4 16.1 11.7 65 3.7 ENE 15 20 8 11 1026.3 1026.3 0.0
29/08:30pm 18.5 16.2 11.8 65 3.7 ENE 15 20 8 11 1026.3 - 0.0
29/08:00pm 18.5 16.2 11.6 64 3.8 ENE 15 20 8 11 1026.2 - 0.0
29/07:30pm 18.9 16.4 12.2 65 3.7 ENE 17 22 9 12 1026.0 - 0.0
29/07:00pm 18.8 16.2 11.9 64 3.8 ENE 17 24 9 13 1025.7 - 0.0
29/06:30pm 18.9 16.3 11.9 64 3.9 ENE 17 20 9 11 1025.4 - 0.0
29/06:00pm 18.7 16.5 12.2 66 3.6 ENE 15 20 8 11 1025.1 1025.1 0.0
29/05:30pm 19.0 16.9 12.5 66 3.6 ENE 15 20 8 11 1025.0 - 0.0
29/05:00pm 19.8 18.9 13.7 68 3.5 ENE 11 13 6 7 1024.8 - 0.0
29/04:30pm 20.3 18.9 13.3 64 4.0 ENE 13 20 7 11 1024.7 - 0.0
29/04:00pm 20.7 19.1 13.9 65 3.9 ENE 15 20 8 11 1024.5 - 0.0
29/03:30pm 21.0 19.3 13.7 63 4.2 ENE 15 20 8 11 1024.4 - 0.0
29/03:00pm 21.4 19.5 14.1 63 4.2 ENE 17 20 9 11 1024.0 1024.0 0.0
29/02:30pm 21.5 19.5 13.9 62 4.4 ENE 17 20 9 11 1023.8 - 0.0
29/02:00pm 21.7 20.2 14.1 62 4.4 ENE 15 20 8 11 1024.2 - 0.0
29/01:30pm 21.2 19.0 13.4 61 4.5 ENE 17 20 9 11 1024.1 - 0.0
29/01:00pm 21.4 19.5 14.3 64 4.1 E 17 20 9 11 1024.3 - 0.0
29/12:30pm 21.7 20.2 14.1 62 4.4 E 15 20 8 11 1024.6 - 0.0
29/12:00pm 21.4 19.4 13.8 62 4.4 E 17 20 9 11 1025.1 1025.1 0.0
29/11:30am 21.0 19.2 13.4 62 4.4 E 15 19 8 10 1025.3 - 0.0
29/11:00am 21.3 20.0 13.7 62 4.4 ESE 13 17 7 9 1025.9 - 0.0
29/10:30am 21.1 19.4 12.3 57 5.0 E 13 15 7 8 1025.9 - 0.0
29/10:00am 21.0 19.8 12.7 59 4.7 ESE 11 15 6 8 1026.0 - 0.0
29/09:30am 20.2 19.0 12.7 62 4.2 ESE 11 15 6 8 1025.9 - 0.0
29/09:00am 18.9 19.0 12.6 67 3.5 SSW 4 13 2 7 1025.8 1025.8 0.0
29/08:30am 16.9 18.0 13.4 80 2.0 CALM 0 0 0 0 1025.8 - 0.0
29/08:00am 14.7 15.8 13.6 93 0.6 CALM 0 0 0 0 1025.6 - 0.0
29/07:30am 12.8 12.4 12.3 97 0.3 WSW 6 7 3 4 1025.2 - 0.0
29/07:00am 11.3 10.5 11.0 98 0.2 SW 6 7 3 4 1024.7 - 0.0
29/06:37am 9.5 8.2 9.2 98 0.1 W 6 7 3 4 1024.4 - 0.0
29/06:30am 8.9 7.4 8.6 98 0.1 W 6 7 3 4 1024.2 - 0.0
29/06:00am 8.3 6.1 8.0 98 0.1 W 9 9 5 5 1023.7 1023.7 0.0
29/05:30am 8.5 6.8 8.2 98 0.1 W 7 9 4 5 1023.3 - 0.0
29/05:00am 8.6 6.9 8.3 98 0.1 W 7 9 4 5 1023.0 - 0.0
29/04:33am 8.7 7.0 8.4 98 0.1 W 7 9 4 5 1022.8 - 0.0
29/04:30am 8.6 6.9 8.3 98 0.1 W 7 9 4 5 1022.8 - 0.0
29/04:17am 8.8 6.8 8.5 98 0.1 W 9 11 5 6 1022.9 - 0.0
29/04:00am 8.9 6.9 8.6 98 0.1 W 9 11 5 6 1022.9 - 0.0
29/03:30am 8.9 7.3 8.6 98 0.1 W 7 9 4 5 1022.7 - 0.0
29/03:17am 9.0 7.0 8.7 98 0.1 W 9 9 5 5 1022.7 - 0.0
29/03:00am 8.9 6.9 8.6 98 0.1 W 9 9 5 5 1022.8 1022.8 0.0
29/02:30am 9.1 7.5 8.6 97 0.2 W 7 9 4 5 1022.8 - 0.0
29/02:20am 9.4 7.5 8.9 97 0.2 W 9 11 5 6 1022.8 - 0.0
29/02:00am 9.9 8.5 9.4 97 0.2 W 7 9 4 5 1023.0 - 0.0
29/01:30am 9.2 7.2 8.7 97 0.2 WSW 9 11 5 6 1023.2 - 0.0
29/01:00am 9.6 8.1 9.1 97 0.2 W 7 9 4 5 1023.3 - 0.0
29/12:30am 9.9 8.5 9.4 97 0.2 W 7 9 4 5 1023.4 - 0.0
29/12:00am 10.1 8.3 9.6 97 0.2 W 9 9 5 5 1023.3 1023.3 0.0
 
Date/Time
EST
Temp
°C
App
Temp
°C
Dew
Point
°C
Rel
Hum
%
Delta-T
°C
Wind Press
QNH
hPa
Press
MSL
hPa
Rain since
9am
mm
Dir  Spd
km/h
Gust
km/h
Spd
kts
Gust
kts
28/11:30pm 10.1 8.3 9.5 96 0.3 W 9 11 5 6 1023.3 - 0.0
28/11:00pm 10.1 8.7 9.5 96 0.3 W 7 9 4 5 1023.2 - 0.0
28/10:30pm 10.9 9.6 10.1 95 0.4 W 7 7 4 4 1023.1 - 0.0
28/10:00pm 10.2 8.7 9.1 93 0.5 WSW 7 9 4 5 1023.2 - 0.0
28/09:30pm 10.0 8.4 8.6 91 0.7 WSW 7 9 4 5 1023.2 - 0.0
28/09:00pm 11.6 10.5 10.5 93 0.6 SW 7 9 4 5 1023.0 1023.0 0.0
28/08:30pm 12.0 11.0 10.2 89 0.9 WSW 6 7 3 4 1022.9 - 0.0
28/08:00pm 13.1 11.3 11.0 87 1.1 W 11 13 6 7 1022.9 - 0.0
28/07:30pm 16.3 14.7 10.2 67 3.2 ENE 9 13 5 7 1022.5 - 0.0
28/07:00pm 17.7 16.7 12.2 70 3.0 E 9 13 5 7 1022.2 - 0.0
28/06:30pm 18.1 16.2 11.9 67 3.4 E 13 17 7 9 1022.1 - 0.0
28/06:00pm 18.4 15.9 11.0 62 4.0 E 15 19 8 10 1021.8 1021.8 0.0
28/05:30pm 18.5 16.4 12.3 67 3.4 E 15 20 8 11 1021.5 - 0.0
28/05:00pm 19.1 16.1 10.6 58 4.6 E 17 20 9 11 1021.2 - 0.0
28/04:30pm 19.6 16.8 11.4 59 4.5 ESE 17 22 9 12 1021.0 - 0.0
28/04:00pm 20.2 17.4 11.4 57 4.8 ESE 17 20 9 11 1020.7 - 0.0
28/03:30pm 20.1 16.6 10.8 55 5.1 ESE 20 24 11 13 1021.0 - 0.0
28/03:00pm 20.5 16.8 10.3 52 5.5 ESE 20 24 11 13 1021.1 1021.1 0.0
28/02:30pm 20.6 16.9 10.1 51 5.7 ESE 20 26 11 14 1021.1 - 0.0
28/02:00pm 21.3 17.5 9.2 46 6.4 ESE 19 24 10 13 1021.1 - 0.0
28/01:30pm 21.4 17.5 9.3 46 6.5 ESE 20 26 11 14 1021.4 - 0.0
28/01:00pm 21.1 17.6 10.9 52 5.6 ESE 20 26 11 14 1021.8 - 0.0
28/12:30pm 21.6 17.5 10.1 48 6.2 SE 22 30 12 16 1022.2 - 0.0
28/12:00pm 21.0 16.8 9.6 48 6.1 SE 22 30 12 16 1022.7 1022.7 0.0
28/11:30am 21.3 17.5 9.9 48 6.1 SE 20 26 11 14 1023.2 - 0.0
28/11:00am 21.5 17.2 7.7 41 7.2 SE 20 32 11 17 1023.4 - 0.0
28/10:30am 21.4 17.5 7.3 40 7.3 S 17 32 9 17 1023.8 - 0.0
28/10:00am 20.3 15.7 6.6 41 6.9 S 20 28 11 15 1024.0 - 0.0
28/09:30am 19.9 15.5 6.6 42 6.7 SSW 19 26 10 14 1024.0 - 0.0
28/09:00am 18.9 14.3 5.4 41 6.5 SSW 19 24 10 13 1023.9 1023.9 0.0
28/08:30am 17.3 14.6 9.0 58 4.3 WSW 13 20 7 11 1023.7 - 0.0
28/08:00am 14.8 13.2 10.2 74 2.4 W 9 11 5 6 1023.5 - 0.0
28/07:30am 11.3 9.7 8.7 84 1.3 W 7 9 4 5 1023.1 - 0.0
28/07:00am 8.5 6.8 7.7 95 0.4 W 6 11 3 6 1023.0 - 0.0
28/06:30am 6.1 3.0 5.4 95 0.3 W 11 11 6 6 1022.5 - 0.0
28/06:00am 5.5 3.0 4.6 94 0.4 W 7 9 4 5 1022.1 1022.1 0.0
28/05:30am 5.6 3.1 4.7 94 0.4 W 7 9 4 5 1021.9 - 0.0
28/05:00am 6.0 2.8 5.1 94 0.4 WNW 11 11 6 6 1021.7 - 0.0
28/04:30am 5.9 3.5 5.2 95 0.3 W 7 9 4 5 1021.3 - 0.0
28/04:00am 5.5 3.0 4.6 94 0.4 WNW 7 9 4 5 1021.3 - 0.0
28/03:30am 5.7 2.8 4.8 94 0.4 WSW 9 11 5 6 1021.1 - 0.0
28/03:00am 5.8 3.5 4.9 94 0.4 WSW 6 7 3 4 1020.7 1020.7 0.0
28/02:30am 6.0 3.2 5.3 95 0.3 W 9 11 5 6 1021.1 - 0.0
28/02:00am 6.2 3.4 5.3 94 0.4 W 9 11 5 6 1021.5 - 0.0
28/01:30am 6.3 3.6 5.6 95 0.3 W 9 11 5 6 1021.5 - 0.0
28/01:00am 6.0 3.6 5.1 94 0.4 W 7 9 4 5 1021.4 - 0.0
28/12:30am 5.8 2.9 4.6 92 0.5 W 9 11 5 6 1021.6 - 0.0
28/12:00am 5.6 3.2 4.1 90 0.6 SW 6 9 3 5 1021.7 1021.7 0.0
 
Date/Time
EST
Temp
°C
App
Temp
°C
Dew
Point
°C
Rel
Hum
%
Delta-T
°C
Wind Press
QNH
hPa
Press
MSL
hPa
Rain since
9am
mm
Dir  Spd
km/h
Gust
km/h
Spd
kts
Gust
kts
27/11:30pm 6.3 4.1 5.3 93 0.4 SSE 6 9 3 5 1021.8 - 0.0
27/11:00pm 5.5 4.1 3.5 87 0.8 CALM 0 0 0 0 1021.5 - 0.0
27/10:30pm 5.9 4.1 3.2 83 1.1 S 2 7 1 4 1021.5 - 0.0
27/10:00pm 7.2 4.3 4.5 83 1.2 WSW 9 11 5 6 1021.3 - 0.0
27/09:30pm 8.2 5.3 4.8 79 1.5 W 9 11 5 6 1021.2 - 0.0

Other Formats:

Comma delimited format used in spreadsheet applications
http://www.bom.gov.au/fwo/IDQ60801/IDQ60801.94569.axf

JavaScript Object Notation format (JSON) in row-major order
http://www.bom.gov.au/fwo/IDQ60801/IDQ60801.94569.json